createdAt,value
2022-10-06T00:02:19.303Z,7.10
2022-10-06T00:07:20.848Z,10.40
2022-10-06T00:12:22.310Z,4.80
2022-10-06T00:17:24.198Z,7.10
2022-10-06T00:22:25.665Z,9.20
2022-10-06T00:27:32.899Z,4.80
2022-10-06T00:32:35.560Z,5.40
2022-10-06T00:37:38.217Z,4.50
2022-10-06T00:42:58.206Z,5.40
2022-10-06T00:48:04.580Z,6.00
2022-10-06T00:53:06.348Z,5.50
2022-10-06T00:58:07.891Z,3.40
2022-10-06T01:03:15.820Z,4.40
2022-10-06T01:08:18.943Z,3.90
2022-10-06T01:13:20.714Z,8.10
2022-10-06T01:18:23.985Z,6.00
2022-10-06T01:23:25.556Z,5.60
2022-10-06T01:28:28.139Z,10.10
2022-10-06T01:33:30.210Z,9.70
2022-10-06T01:38:32.395Z,7.00
2022-10-06T01:43:37.330Z,5.20
2022-10-06T01:48:40.197Z,7.40
2022-10-06T01:53:43.240Z,4.50
2022-10-06T01:58:44.787Z,5.20
2022-10-06T02:03:46.811Z,4.30
2022-10-06T02:08:48.342Z,4.90
2022-10-06T02:13:49.996Z,5.60
2022-10-06T02:18:51.676Z,5.20
2022-10-06T02:23:54.456Z,7.10
2022-10-06T02:28:55.975Z,5.70
2022-10-06T02:33:59.027Z,7.40
2022-10-06T02:39:01.315Z,8.20
2022-10-06T02:44:03.640Z,9.00
2022-10-06T02:49:05.278Z,5.20
2022-10-06T02:54:06.793Z,4.90
2022-10-06T02:59:09.453Z,6.50
2022-10-06T03:04:13.130Z,8.00
2022-10-06T03:09:15.964Z,5.70
2022-10-06T03:14:21.950Z,6.50
2022-10-06T03:19:24.243Z,6.60
2022-10-06T03:24:26.234Z,4.00
2022-10-06T03:29:31.286Z,6.30
2022-10-06T03:34:34.086Z,7.30
2022-10-06T03:39:36.504Z,5.20
2022-10-06T03:44:38.275Z,7.40
2022-10-06T03:49:40.152Z,5.40
2022-10-06T03:54:41.674Z,8.10
2022-10-06T03:59:43.297Z,6.20
2022-10-06T04:04:45.018Z,5.40
2022-10-06T04:09:46.837Z,9.60
2022-10-06T04:14:50.631Z,9.80
2022-10-06T04:19:53.444Z,6.60
2022-10-06T04:24:55.139Z,7.50
2022-10-06T04:29:57.207Z,11.80
2022-10-06T04:34:58.957Z,7.00
2022-10-06T04:40:01.736Z,16.40
2022-10-06T04:45:11.037Z,9.00
2022-10-06T04:50:16.108Z,10.50
2022-10-06T04:55:38.224Z,5.80
2022-10-06T05:00:43.562Z,15.00
2022-10-06T05:05:45.241Z,11.30
2022-10-06T05:10:46.902Z,12.20
2022-10-06T05:15:55.284Z,9.00
2022-10-06T05:20:59.560Z,10.60
2022-10-06T05:26:04.602Z,13.80
2022-10-06T05:31:09.839Z,12.80
2022-10-06T05:36:11.535Z,18.40
2022-10-06T05:41:23.794Z,9.90
2022-10-06T05:46:28.475Z,21.00
2022-10-06T05:51:33.018Z,14.20
2022-10-06T05:56:38.570Z,13.50
2022-10-06T06:01:42.001Z,13.90
2022-10-06T06:07:06.578Z,74.90
2022-10-06T06:12:08.487Z,17.60
2022-10-06T06:17:23.800Z,14.00
2022-10-06T06:22:25.930Z,16.70
2022-10-06T06:27:28.515Z,10.20
2022-10-06T06:32:30.239Z,11.20
2022-10-06T06:37:33.444Z,12.50
2022-10-06T06:42:35.669Z,13.30
2022-10-06T06:48:15.958Z,13.10
2022-10-06T06:53:18.651Z,15.70
2022-10-06T06:58:21.750Z,49.60
2022-10-06T07:03:52.008Z,10.90
2022-10-06T07:08:47.816Z,10.50
2022-10-06T07:13:52.677Z,16.60
2022-10-06T07:19:13.056Z,8.50
2022-10-06T07:24:33.694Z,9.20
2022-10-06T07:29:35.836Z,24.00
2022-10-06T07:34:37.652Z,5.90
2022-10-06T07:39:39.461Z,6.50
2022-10-06T07:44:41.788Z,8.90
2022-10-06T07:49:46.396Z,5.50
2022-10-06T07:54:50.613Z,13.40
2022-10-06T08:00:10.981Z,12.40
2022-10-06T08:05:15.480Z,8.60
2022-10-06T08:10:18.448Z,7.80
2022-10-06T08:15:20.261Z,5.80
2022-10-06T08:20:24.251Z,3.80
2022-10-06T08:25:25.797Z,7.80
2022-10-06T08:30:27.279Z,9.00
2022-10-06T08:35:30.581Z,10.60
2022-10-06T08:40:32.204Z,6.50
2022-10-06T08:45:38.693Z,6.10
2022-10-06T08:50:52.756Z,16.10
2022-10-06T08:56:01.796Z,10.70
2022-10-06T09:01:17.202Z,7.30
2022-10-06T09:06:24.943Z,5.50
2022-10-06T09:11:26.415Z,11.80
2022-10-06T09:16:29.615Z,4.60
2022-10-06T09:21:36.747Z,9.60
2022-10-06T09:26:43.393Z,5.60
2022-10-06T09:31:51.003Z,3.80
2022-10-06T09:37:03.928Z,4.80
2022-10-06T09:42:13.684Z,11.70
2022-10-06T09:47:32.122Z,3.80
2022-10-06T09:52:33.726Z,10.30
2022-10-06T09:57:35.763Z,5.50
2022-10-06T10:02:37.666Z,4.80
2022-10-06T10:07:39.404Z,4.50
2022-10-06T10:12:49.592Z,5.20
2022-10-06T10:17:52.796Z,14.70
2022-10-06T10:22:55.789Z,2.30
2022-10-06T10:28:07.032Z,6.40
2022-10-06T10:33:34.789Z,7.40
2022-10-06T10:38:41.045Z,7.30
2022-10-06T10:44:21.375Z,5.90
2022-10-06T10:49:31.995Z,8.80
2022-10-06T10:54:53.730Z,3.20
2022-10-06T10:59:59.714Z,5.10
2022-10-06T11:05:13.410Z,8.20
2022-10-06T11:10:27.116Z,9.50
2022-10-06T11:15:53.474Z,6.80
2022-10-06T11:21:01.152Z,11.10
2022-10-06T11:26:21.556Z,18.80
2022-10-06T11:31:23.479Z,4.60
2022-10-06T11:36:35.038Z,5.60
2022-10-06T11:41:38.849Z,5.10
2022-10-06T11:46:46.500Z,5.30
2022-10-06T11:51:48.035Z,8.20
2022-10-06T11:56:49.543Z,4.40
2022-10-06T12:01:52.123Z,3.20
2022-10-06T12:06:55.407Z,5.20
2022-10-06T12:12:01.335Z,5.70
2022-10-06T12:17:13.004Z,3.80
2022-10-06T12:22:31.259Z,9.50
2022-10-06T12:27:41.784Z,4.80
2022-10-06T12:37:50.183Z,4.00
2022-10-06T12:43:09.515Z,5.90
2022-10-06T12:48:15.081Z,2.30
2022-10-06T12:53:19.688Z,5.00
2022-10-06T12:58:26.843Z,4.50
2022-10-06T13:03:28.916Z,2.50
2022-10-06T13:08:31.405Z,3.90
2022-10-06T13:13:35.049Z,5.20
2022-10-06T13:18:36.823Z,2.60
2022-10-06T13:23:39.299Z,2.70
2022-10-06T13:28:43.808Z,4.20
2022-10-06T13:33:46.593Z,7.20
2022-10-06T13:38:48.104Z,6.70
2022-10-06T13:43:54.474Z,7.30
2022-10-06T13:49:00.893Z,5.40
2022-10-06T13:54:05.712Z,5.70
2022-10-06T13:59:25.999Z,9.20
2022-10-06T14:09:33.308Z,5.10
2022-10-06T14:14:34.923Z,4.60
2022-10-06T14:19:37.664Z,10.00
2022-10-06T14:24:50.235Z,7.40
2022-10-06T14:29:52.071Z,4.40
2022-10-06T14:34:53.645Z,5.20
2022-10-06T14:39:56.074Z,3.90
2022-10-06T14:44:58.224Z,4.50
2022-10-06T14:49:59.968Z,6.10
2022-10-06T14:55:01.658Z,3.70
2022-10-06T15:00:05.907Z,5.10
2022-10-06T15:05:07.587Z,3.50
2022-10-06T15:10:09.298Z,6.70
2022-10-06T15:15:10.887Z,5.40
2022-10-06T15:20:14.286Z,5.50
2022-10-06T15:25:34.635Z,5.70
2022-10-06T15:30:39.225Z,9.20
2022-10-06T15:35:42.885Z,9.20
2022-10-06T15:40:44.329Z,9.10
2022-10-06T15:45:52.955Z,7.10
2022-10-06T15:50:54.453Z,7.70
2022-10-06T15:55:58.911Z,5.60
2022-10-06T16:01:00.392Z,5.40
2022-10-06T16:06:05.111Z,7.40
2022-10-06T16:11:06.609Z,7.30
2022-10-06T16:16:08.153Z,7.60
2022-10-06T16:21:09.777Z,8.30
2022-10-06T16:26:11.305Z,11.50
2022-10-06T16:31:13.046Z,10.80
2022-10-06T16:36:15.476Z,11.30
2022-10-06T16:41:17.283Z,5.50
2022-10-06T16:46:23.655Z,5.40
2022-10-06T16:51:26.363Z,11.40
2022-10-06T16:56:27.967Z,9.30
2022-10-06T17:01:30.853Z,12.80
2022-10-06T17:06:39.983Z,19.10
2022-10-06T17:11:48.765Z,25.40
2022-10-06T17:16:51.296Z,16.60
2022-10-06T17:21:58.644Z,31.40
2022-10-06T17:27:01.152Z,22.30
2022-10-06T17:32:02.991Z,21.60
2022-10-06T17:37:04.601Z,21.60
2022-10-06T17:42:06.215Z,21.40
2022-10-06T17:47:10.616Z,16.70
2022-10-06T17:52:12.152Z,28.30
2022-10-06T17:57:13.652Z,17.90
2022-10-06T18:02:15.273Z,28.30
2022-10-06T18:07:16.772Z,22.80
2022-10-06T18:12:18.778Z,23.90
2022-10-06T18:17:23.313Z,30.40
2022-10-06T18:22:25.131Z,22.10
2022-10-06T18:27:27.240Z,26.60
2022-10-06T18:34:17.826Z,25.70
2022-10-06T18:37:53.133Z,29.10
2022-10-06T18:42:57.935Z,37.70
2022-10-06T18:48:17.942Z,56.50
2022-10-06T18:53:19.460Z,52.90
2022-10-06T18:58:20.975Z,46.40
2022-10-06T19:03:22.483Z,41.60
2022-10-06T19:08:24.171Z,41.40
2022-10-06T19:13:25.710Z,51.90
2022-10-06T19:18:36.469Z,50.70
2022-10-06T19:23:38.505Z,55.00
2022-10-06T19:28:40.321Z,53.60
2022-10-06T19:33:43.307Z,51.40
2022-10-06T19:38:45.517Z,58.60
2022-10-06T19:43:47.040Z,62.70
2022-10-06T19:48:52.124Z,56.70
2022-10-06T19:53:53.570Z,59.80
2022-10-06T19:58:56.099Z,55.60
2022-10-06T20:03:58.360Z,50.10
2022-10-06T20:09:06.453Z,48.30
2022-10-06T20:14:10.700Z,50.00
2022-10-06T20:19:12.645Z,56.80
2022-10-06T20:24:15.980Z,54.60
2022-10-06T20:29:19.553Z,49.80
2022-10-06T20:34:25.384Z,47.90
2022-10-06T20:39:45.502Z,43.10
2022-10-06T20:44:47.076Z,39.50
2022-10-06T20:49:54.504Z,23.60
2022-10-06T20:54:56.108Z,23.50
2022-10-06T20:59:57.661Z,28.00
2022-10-06T21:04:59.332Z,29.60
2022-10-06T21:10:00.908Z,26.70
2022-10-06T21:15:02.453Z,21.90
2022-10-06T21:20:04.107Z,23.90
2022-10-06T21:25:05.917Z,20.80
2022-10-06T21:30:10.209Z,23.70
2022-10-06T21:35:12.647Z,20.80
2022-10-06T21:40:14.231Z,22.00
2022-10-06T21:45:15.771Z,22.40
2022-10-06T21:50:17.275Z,20.00
2022-10-06T21:55:18.791Z,23.20
2022-10-06T22:00:20.339Z,23.80
2022-10-06T22:05:21.952Z,19.00
2022-10-06T22:10:23.461Z,32.10
2022-10-06T22:15:25.021Z,26.00
2022-10-06T22:20:26.598Z,31.70
2022-10-06T22:25:28.142Z,38.50
2022-10-06T22:30:29.751Z,41.20
2022-10-06T22:35:31.392Z,58.00
2022-10-06T22:40:32.951Z,50.20
2022-10-06T22:45:34.496Z,54.20
2022-10-06T22:50:36.104Z,58.10
2022-10-06T22:55:47.443Z,55.10
2022-10-06T23:00:49.340Z,53.00
2022-10-06T23:05:57.994Z,60.20
2022-10-06T23:11:05.779Z,58.10
2022-10-06T23:16:11.486Z,64.90
2022-10-06T23:21:18.988Z,59.60
2022-10-06T23:26:20.949Z,68.80
2022-10-06T23:31:22.884Z,66.30
2022-10-06T23:36:24.535Z,57.20
2022-10-06T23:41:26.161Z,57.50
2022-10-06T23:46:27.740Z,58.10
